sensor_id;sensor_type;location;lat;lon;timestamp;pressure;altitude;pressure_sealevel;temperature;humidity
71774;BME280;59607;52.130;5.430;2024-02-16T00:00:52;101038.47;;;11.06;100.00
71774;BME280;59607;52.130;5.430;2024-02-16T00:03:26;101038.94;;;11.01;100.00
71774;BME280;59607;52.130;5.430;2024-02-16T00:05:53;101038.28;;;10.99;100.00
71774;BME280;59607;52.130;5.430;2024-02-16T00:08:30;101041.56;;;11.01;100.00
71774;BME280;59607;52.130;5.430;2024-02-16T00:11:05;101044.53;;;10.98;100.00
71774;BME280;59607;52.130;5.430;2024-02-16T00:13:31;101035.97;;;10.96;100.00
71774;BME280;59607;52.130;5.430;2024-02-16T00:15:58;101041.38;;;10.94;100.00
71774;BME280;59607;52.130;5.430;2024-02-16T00:18:29;101032.69;;;10.94;100.00
71774;BME280;59607;52.130;5.430;2024-02-16T00:20:55;101026.91;;;10.90;100.00
71774;BME280;59607;52.130;5.430;2024-02-16T00:23:25;101027.75;;;10.91;100.00
71774;BME280;59607;52.130;5.430;2024-02-16T00:25:54;101034.97;;;10.89;100.00
71774;BME280;59607;52.130;5.430;2024-02-16T00:28:21;101031.03;;;10.84;100.00
71774;BME280;59607;52.130;5.430;2024-02-16T00:30:56;101029.69;;;10.80;100.00
71774;BME280;59607;52.130;5.430;2024-02-16T00:33:23;101025.41;;;10.79;100.00
71774;BME280;59607;52.130;5.430;2024-02-16T00:35:49;101025.41;;;10.79;100.00
71774;BME280;59607;52.130;5.430;2024-02-16T00:38:22;101031.81;;;10.77;100.00
71774;BME280;59607;52.130;5.430;2024-02-16T00:40:49;101029.34;;;10.75;100.00
71774;BME280;59607;52.130;5.430;2024-02-16T00:43:19;101022.13;;;10.77;100.00
71774;BME280;59607;52.130;5.430;2024-02-16T00:45:45;101030.84;;;10.78;100.00
71774;BME280;59607;52.130;5.430;2024-02-16T00:48:12;101029.03;;;10.78;100.00
71774;BME280;59607;52.130;5.430;2024-02-16T00:50:39;101021.16;;;10.78;100.00
71774;BME280;59607;52.130;5.430;2024-02-16T00:53:09;101019.34;;;10.79;100.00
71774;BME280;59607;52.130;5.430;2024-02-16T00:55:35;101021.16;;;10.78;100.00
71774;BME280;59607;52.130;5.430;2024-02-16T00:58:02;101015.25;;;10.76;100.00
71774;BME280;59607;52.130;5.430;2024-02-16T01:00:34;101017.53;;;10.71;100.00
71774;BME280;59607;52.130;5.430;2024-02-16T01:03:00;101020.47;;;10.68;100.00
71774;BME280;59607;52.130;5.430;2024-02-16T01:05:27;101013.06;;;10.63;100.00
71774;BME280;59607;52.130;5.430;2024-02-16T01:07:59;101013.75;;;10.65;100.00
71774;BME280;59607;52.130;5.430;2024-02-16T01:10:26;101018.47;;;10.61;100.00
71774;BME280;59607;52.130;5.430;2024-02-16T01:12:55;101008.47;;;10.57;100.00
71774;BME280;59607;52.130;5.430;2024-02-16T01:15:22;101005.69;;;10.58;100.00
71774;BME280;59607;52.130;5.430;2024-02-16T01:17:49;101005.00;;;10.56;100.00
71774;BME280;59607;52.130;5.430;2024-02-16T01:20:19;101002.72;;;10.53;100.00
71774;BME280;59607;52.130;5.430;2024-02-16T01:22:46;100999.13;;;10.54;100.00
71774;BME280;59607;52.130;5.430;2024-02-16T01:25:13;100992.38;;;10.52;100.00
71774;BME280;59607;52.130;5.430;2024-02-16T01:27:45;100993.22;;;10.52;100.00
71774;BME280;59607;52.130;5.430;2024-02-16T01:30:14;100993.06;;;10.54;100.00
71774;BME280;59607;52.130;5.430;2024-02-16T01:32:48;100994.69;;;10.55;100.00
71774;BME280;59607;52.130;5.430;2024-02-16T01:35:18;100998.13;;;10.55;100.00
71774;BME280;59607;52.130;5.430;2024-02-16T01:37:45;100989.75;;;10.52;100.00
71774;BME280;59607;52.130;5.430;2024-02-16T01:40:16;100984.50;;;10.52;100.00
71774;BME280;59607;52.130;5.430;2024-02-16T01:42:44;100985.50;;;10.51;100.00
71774;BME280;59607;52.130;5.430;2024-02-16T01:45:12;100987.44;;;10.48;100.00
71774;BME280;59607;52.130;5.430;2024-02-16T01:47:43;100988.72;;;10.44;100.00
71774;BME280;59607;52.130;5.430;2024-02-16T01:50:10;100985.59;;;10.41;100.00
71774;BME280;59607;52.130;5.430;2024-02-16T01:52:46;100987.38;;;10.40;100.00
71774;BME280;59607;52.130;5.430;2024-02-16T01:55:13;100985.91;;;10.37;100.00
71774;BME280;59607;52.130;5.430;2024-02-16T01:57:48;100993.94;;;10.36;100.00
71774;BME280;59607;52.130;5.430;2024-02-16T02:00:15;100977.38;;;10.35;100.00
71774;BME280;59607;52.130;5.430;2024-02-16T02:03:00;100979.31;;;10.33;100.00
71774;BME280;59607;52.130;5.430;2024-02-16T02:05:32;100973.28;;;10.33;100.00
71774;BME280;59607;52.130;5.430;2024-02-16T02:08:09;100979.16;;;10.35;100.00
71774;BME280;59607;52.130;5.430;2024-02-16T02:10:38;100967.03;;;10.34;100.00
71774;BME280;59607;52.130;5.430;2024-02-16T02:13:04;100971.97;;;10.37;100.00
71774;BME280;59607;52.130;5.430;2024-02-16T02:15:33;100966.25;;;10.42;100.00
71774;BME280;59607;52.130;5.430;2024-02-16T02:18:05;100963.19;;;10.46;100.00
71774;BME280;59607;52.130;5.430;2024-02-16T02:20:32;100976.81;;;10.50;100.00
71774;BME280;59607;52.130;5.430;2024-02-16T02:23:03;100973.03;;;10.53;100.00
71774;BME280;59607;52.130;5.430;2024-02-16T02:25:34;100959.63;;;10.56;100.00
71774;BME280;59607;52.130;5.430;2024-02-16T02:28:05;100975.19;;;10.57;100.00
71774;BME280;59607;52.130;5.430;2024-02-16T02:30:32;100977.66;;;10.59;100.00
71774;BME280;59607;52.130;5.430;2024-02-16T02:33:01;100970.59;;;10.59;100.00
71774;BME280;59607;52.130;5.430;2024-02-16T02:35:28;100971.59;;;10.58;100.00
71774;BME280;59607;52.130;5.430;2024-02-16T02:37:54;100967.81;;;10.61;100.00
71774;BME280;59607;52.130;5.430;2024-02-16T02:40:21;100960.94;;;10.60;100.00
71774;BME280;59607;52.130;5.430;2024-02-16T02:42:47;100964.38;;;10.60;100.00
71774;BME280;59607;52.130;5.430;2024-02-16T02:45:14;100952.41;;;10.58;100.00
71774;BME280;59607;52.130;5.430;2024-02-16T02:47:41;100946.19;;;10.59;100.00
71774;BME280;59607;52.130;5.430;2024-02-16T02:50:11;100946.84;;;10.61;100.00
71774;BME280;59607;52.130;5.430;2024-02-16T02:52:38;100941.59;;;10.61;100.00
71774;BME280;59607;52.130;5.430;2024-02-16T02:55:05;100945.03;;;10.61;100.00
71774;BME280;59607;52.130;5.430;2024-02-16T02:57:32;100944.03;;;10.63;100.00
71774;BME280;59607;52.130;5.430;2024-02-16T03:00:06;100932.59;;;10.64;100.00
71774;BME280;59607;52.130;5.430;2024-02-16T03:02:48;100934.91;;;10.67;100.00
71774;BME280;59607;52.130;5.430;2024-02-16T03:05:15;100931.44;;;10.66;100.00
71774;BME280;59607;52.130;5.430;2024-02-16T03:07:48;100925.53;;;10.64;100.00
71774;BME280;59607;52.130;5.430;2024-02-16T03:10:15;100931.59;;;10.65;100.00
71774;BME280;59607;52.130;5.430;2024-02-16T03:12:50;100930.94;;;10.63;100.00
71774;BME280;59607;52.130;5.430;2024-02-16T03:15:17;100930.28;;;10.60;100.00
71774;BME280;59607;52.130;5.430;2024-02-16T03:17:55;100929.63;;;10.58;100.00
71774;BME280;59607;52.130;5.430;2024-02-16T03:20:25;100928.31;;;10.54;100.00
71774;BME280;59607;52.130;5.430;2024-02-16T03:22:56;100933.38;;;10.47;100.00
71774;BME280;59607;52.130;5.430;2024-02-16T03:25:22;100928.56;;;10.43;100.00
71774;BME280;59607;52.130;5.430;2024-02-16T03:27:51;100928.06;;;10.39;100.00
71774;BME280;59607;52.130;5.430;2024-02-16T03:30:36;100928.38;;;10.36;100.00
71774;BME280;59607;52.130;5.430;2024-02-16T03:33:10;100930.34;;;10.34;100.00
71774;BME280;59607;52.130;5.430;2024-02-16T03:35:40;100931.50;;;10.31;100.00
71774;BME280;59607;52.130;5.430;2024-02-16T03:38:11;100930.81;;;10.29;100.00
71774;BME280;59607;52.130;5.430;2024-02-16T03:40:37;100940.00;;;10.25;100.00
71774;BME280;59607;52.130;5.430;2024-02-16T03:43:09;100929.63;;;10.23;100.00
71774;BME280;59607;52.130;5.430;2024-02-16T03:45:38;100933.56;;;10.19;100.00
71774;BME280;59607;52.130;5.430;2024-02-16T03:48:07;100935.34;;;10.19;100.00
71774;BME280;59607;52.130;5.430;2024-02-16T03:50:36;100925.19;;;10.16;100.00
71774;BME280;59607;52.130;5.430;2024-02-16T03:53:03;100933.88;;;10.16;100.00
71774;BME280;59607;52.130;5.430;2024-02-16T03:55:47;100933.06;;;10.16;100.00
71774;BME280;59607;52.130;5.430;2024-02-16T03:58:28;100926.34;;;10.13;100.00
71774;BME280;59607;52.130;5.430;2024-02-16T04:01:00;100925.00;;;10.09;100.00
71774;BME280;59607;52.130;5.430;2024-02-16T04:03:27;100928.91;;;10.05;100.00
71774;BME280;59607;52.130;5.430;2024-02-16T04:05:57;100925.31;;;10.06;100.00
71774;BME280;59607;52.130;5.430;2024-02-16T04:08:27;100928.91;;;10.05;100.00
71774;BME280;59607;52.130;5.430;2024-02-16T04:10:57;100930.53;;;10.06;100.00
71774;BME280;59607;52.130;5.430;2024-02-16T04:13:27;100931.06;;;10.09;100.00
71774;BME280;59607;52.130;5.430;2024-02-16T04:15:53;100936.81;;;10.13;100.00
71774;BME280;59607;52.130;5.430;2024-02-16T04:18:23;100944.69;;;10.13;100.00
71774;BME280;59607;52.130;5.430;2024-02-16T04:20:54;100940.28;;;10.14;100.00
71774;BME280;59607;52.130;5.430;2024-02-16T04:23:24;100935.19;;;10.12;100.00
71774;BME280;59607;52.130;5.430;2024-02-16T04:25:53;100932.72;;;10.10;100.00
71774;BME280;59607;52.130;5.430;2024-02-16T04:28:19;100933.69;;;10.09;100.00
71774;BME280;59607;52.130;5.430;2024-02-16T04:30:49;100929.75;;;10.05;100.00
71774;BME280;59607;52.130;5.430;2024-02-16T04:33:18;100931.03;;;10.01;100.00
71774;BME280;59607;52.130;5.430;2024-02-16T04:35:45;100937.25;;;10.00;100.00
71774;BME280;59607;52.130;5.430;2024-02-16T04:38:20;100927.44;;;10.02;100.00
71774;BME280;59607;52.130;5.430;2024-02-16T04:40:47;100920.22;;;10.04;100.00
71774;BME280;59607;52.130;5.430;2024-02-16T04:43:13;100924.81;;;10.02;100.00
71774;BME280;59607;52.130;5.430;2024-02-16T04:45:50;100929.38;;;10.00;100.00
71774;BME280;59607;52.130;5.430;2024-02-16T04:48:25;100937.41;;;9.98;100.00
71774;BME280;59607;52.130;5.430;2024-02-16T04:50:52;100935.63;;;9.99;100.00
71774;BME280;59607;52.130;5.430;2024-02-16T04:53:18;100933.47;;;10.03;100.00
71774;BME280;59607;52.130;5.430;2024-02-16T04:55:51;100942.53;;;10.08;100.00
71774;BME280;59607;52.130;5.430;2024-02-16T04:58:17;100933.53;;;10.11;100.00
71774;BME280;59607;52.130;5.430;2024-02-16T05:00:45;100930.75;;;10.12;100.00
71774;BME280;59607;52.130;5.430;2024-02-16T05:03:17;100935.81;;;10.14;100.00
71774;BME280;59607;52.130;5.430;2024-02-16T05:05:47;100929.63;;;10.15;100.00
71774;BME280;59607;52.130;5.430;2024-02-16T05:08:21;100935.81;;;10.14;100.00
71774;BME280;59607;52.130;5.430;2024-02-16T05:10:48;100932.41;;;10.14;100.00
71774;BME280;59607;52.130;5.430;2024-02-16T05:13:20;100940.44;;;10.12;100.00
71774;BME280;59607;52.130;5.430;2024-02-16T05:15:46;100934.34;;;10.11;100.00
71774;BME280;59607;52.130;5.430;2024-02-16T05:18:15;100929.28;;;10.10;100.00
71774;BME280;59607;52.130;5.430;2024-02-16T05:20:44;100929.28;;;10.10;100.00
71774;BME280;59607;52.130;5.430;2024-02-16T05:23:11;100925.00;;;10.09;100.00
71774;BME280;59607;52.130;5.430;2024-02-16T05:25:37;100924.88;;;10.10;100.00
71774;BME280;59607;52.130;5.430;2024-02-16T05:28:17;100928.97;;;10.13;100.00
71774;BME280;59607;52.130;5.430;2024-02-16T05:30:47;100914.06;;;10.14;100.00
71774;BME280;59607;52.130;5.430;2024-02-16T05:33:16;100913.91;;;10.15;100.00
71774;BME280;59607;52.130;5.430;2024-02-16T05:35:43;100913.91;;;10.15;100.00
71774;BME280;59607;52.130;5.430;2024-02-16T05:38:24;100917.16;;;10.17;100.00
71774;BME280;59607;52.130;5.430;2024-02-16T05:41:10;100915.22;;;10.19;100.00
71774;BME280;59607;52.130;5.430;2024-02-16T05:43:37;100914.06;;;10.22;100.00
71774;BME280;59607;52.130;5.430;2024-02-16T05:46:04;100918.34;;;10.23;100.00
71774;BME280;59607;52.130;5.430;2024-02-16T05:48:37;100913.91;;;10.23;100.00
71774;BME280;59607;52.130;5.430;2024-02-16T05:51:07;100918.19;;;10.24;100.00
71774;BME280;59607;52.130;5.430;2024-02-16T05:53:36;100921.47;;;10.27;100.00
71774;BME280;59607;52.130;5.430;2024-02-16T05:56:06;100919.50;;;10.29;100.00
71774;BME280;59607;52.130;5.430;2024-02-16T05:58:33;100924.59;;;10.30;100.00
71774;BME280;59607;52.130;5.430;2024-02-16T06:01:08;100921.97;;;10.30;100.00
71774;BME280;59607;52.130;5.430;2024-02-16T06:03:41;100919.34;;;10.30;100.00
71774;BME280;59607;52.130;5.430;2024-02-16T06:06:11;100920.00;;;10.32;100.00
71774;BME280;59607;52.130;5.430;2024-02-16T06:08:37;100919.19;;;10.32;100.00
71774;BME280;59607;52.130;5.430;2024-02-16T06:11:07;100927.03;;;10.32;100.00
71774;BME280;59607;52.130;5.430;2024-02-16T06:13:35;100923.63;;;10.31;100.00
71774;BME280;59607;52.130;5.430;2024-02-16T06:16:05;100918.38;;;10.31;100.00
71774;BME280;59607;52.130;5.430;2024-02-16T06:18:40;100917.38;;;10.32;100.00
71774;BME280;59607;52.130;5.430;2024-02-16T06:21:08;100927.03;;;10.32;100.00
71774;BME280;59607;52.130;5.430;2024-02-16T06:23:37;100936.56;;;10.33;100.00
71774;BME280;59607;52.130;5.430;2024-02-16T06:26:06;100946.06;;;10.34;100.00
71774;BME280;59607;52.130;5.430;2024-02-16T06:28:33;100949.19;;;10.37;100.00
71774;BME280;59607;52.130;5.430;2024-02-16T06:31:15;100956.06;;;10.39;100.00
71774;BME280;59607;52.130;5.430;2024-02-16T06:33:57;100955.91;;;10.40;100.00
71774;BME280;59607;52.130;5.430;2024-02-16T06:36:29;100964.47;;;10.42;100.00
71774;BME280;59607;52.130;5.430;2024-02-16T06:38:56;100961.69;;;10.44;100.00
71774;BME280;59607;52.130;5.430;2024-02-16T06:41:23;100973.00;;;10.44;100.00
71774;BME280;59607;52.130;5.430;2024-02-16T06:43:55;100970.22;;;10.46;100.00
71774;BME280;59607;52.130;5.430;2024-02-16T06:46:21;100972.84;;;10.46;100.00
71774;BME280;59607;52.130;5.430;2024-02-16T06:48:56;100972.00;;;10.45;100.00
71774;BME280;59607;52.130;5.430;2024-02-16T06:51:24;100980.69;;;10.46;100.00
71774;BME280;59607;52.130;5.430;2024-02-16T06:53:50;100991.88;;;10.48;100.00
71774;BME280;59607;52.130;5.430;2024-02-16T06:56:20;100987.44;;;10.48;100.00
71774;BME280;59607;52.130;5.430;2024-02-16T06:58:47;100984.50;;;10.52;100.00
71774;BME280;59607;52.130;5.430;2024-02-16T07:01:14;100994.84;;;10.53;100.00
71774;BME280;59607;52.130;5.430;2024-02-16T07:03:46;100986.81;;;10.55;100.00
71774;BME280;59607;52.130;5.430;2024-02-16T07:06:14;100986.81;;;10.55;100.00
71774;BME280;59607;52.130;5.430;2024-02-16T07:08:44;100995.50;;;10.55;100.00
71774;BME280;59607;52.130;5.430;2024-02-16T07:11:15;100997.97;;;10.57;100.00
71774;BME280;59607;52.130;5.430;2024-02-16T07:13:45;100999.44;;;10.59;100.00
71774;BME280;59607;52.130;5.430;2024-02-16T07:16:16;100997.66;;;10.60;100.00
71774;BME280;59607;52.130;5.430;2024-02-16T07:18:47;100995.69;;;10.62;100.00
71774;BME280;59607;52.130;5.430;2024-02-16T07:21:15;101019.00;;;10.65;100.00
71774;BME280;59607;52.130;5.430;2024-02-16T07:23:42;101008.19;;;10.68;100.00
71774;BME280;59607;52.130;5.430;2024-02-16T07:26:12;101014.41;;;10.67;100.00
71774;BME280;59607;52.130;5.430;2024-02-16T07:28:43;101015.88;;;10.70;100.00
71774;BME280;59607;52.130;5.430;2024-02-16T07:31:09;101014.91;;;10.71;100.00
71774;BME280;59607;52.130;5.430;2024-02-16T07:33:42;101014.41;;;10.76;100.00
71774;BME280;59607;52.130;5.430;2024-02-16T07:36:09;101012.47;;;10.78;100.00
71774;BME280;59607;52.130;5.430;2024-02-16T07:38:39;101020.00;;;10.81;100.00
71774;BME280;59607;52.130;5.430;2024-02-16T07:41:11;101020.53;;;10.84;100.00
71774;BME280;59607;52.130;5.430;2024-02-16T07:43:40;101017.56;;;10.88;100.00
71774;BME280;59607;52.130;5.430;2024-02-16T07:46:09;101022.00;;;10.87;100.00
71774;BME280;59607;52.130;5.430;2024-02-16T07:48:36;101034.63;;;10.92;100.00
71774;BME280;59607;52.130;5.430;2024-02-16T07:51:04;101037.09;;;10.93;100.00
71774;BME280;59607;52.130;5.430;2024-02-16T07:53:38;101039.44;;;10.96;100.00
71774;BME280;59607;52.130;5.430;2024-02-16T07:56:15;101038.13;;;11.01;100.00
71774;BME280;59607;52.130;5.430;2024-02-16T07:58:42;101043.72;;;11.06;100.00
71774;BME280;59607;52.130;5.430;2024-02-16T08:01:11;101043.38;;;11.09;100.00
71774;BME280;59607;52.130;5.430;2024-02-16T08:03:45;101053.41;;;11.14;100.00
71774;BME280;59607;52.130;5.430;2024-02-16T08:06:12;101050.28;;;11.18;100.00
71774;BME280;59607;52.130;5.430;2024-02-16T08:08:43;101061.94;;;11.24;100.00
71774;BME280;59607;52.130;5.430;2024-02-16T08:11:10;101062.28;;;11.29;100.00
71774;BME280;59607;52.130;5.430;2024-02-16T08:13:46;101062.28;;;11.38;100.00
71774;BME280;59607;52.130;5.430;2024-02-16T08:16:13;101062.13;;;11.47;100.00
71774;BME280;59607;52.130;5.430;2024-02-16T08:18:43;101060.34;;;11.56;100.00
71774;BME280;59607;52.130;5.430;2024-02-16T08:21:15;101069.88;;;11.66;100.00
71774;BME280;59607;52.130;5.430;2024-02-16T08:23:44;101076.09;;;11.73;100.00
71774;BME280;59607;52.130;5.430;2024-02-16T08:26:14;101073.31;;;11.83;100.00
71774;BME280;59607;52.130;5.430;2024-02-16T08:28:43;101074.78;;;11.94;100.00
71774;BME280;59607;52.130;5.430;2024-02-16T08:31:18;101076.25;;;12.05;100.00
71774;BME280;59607;52.130;5.430;2024-02-16T08:33:45;101083.16;;;12.14;100.00
71774;BME280;59607;52.130;5.430;2024-02-16T08:36:20;101082.00;;;12.25;100.00
71774;BME280;59607;52.130;5.430;2024-02-16T08:38:51;101080.00;;;12.36;100.00
71774;BME280;59607;52.130;5.430;2024-02-16T08:41:24;101082.09;;;12.49;100.00
71774;BME280;59607;52.130;5.430;2024-02-16T08:43:51;101089.97;;;12.57;100.00
71774;BME280;59607;52.130;5.430;2024-02-16T08:46:33;101084.66;;;12.65;100.00
71774;BME280;59607;52.130;5.430;2024-02-16T08:49:09;101081.19;;;12.73;100.00
71774;BME280;59607;52.130;5.430;2024-02-16T08:51:38;101090.22;;;12.79;100.00
71774;BME280;59607;52.130;5.430;2024-02-16T08:54:08;101090.53;;;12.84;100.00
71774;BME280;59607;52.130;5.430;2024-02-16T08:56:36;101087.38;;;12.89;100.00
71774;BME280;59607;52.130;5.430;2024-02-16T08:59:19;101091.44;;;13.00;100.00
71774;BME280;59607;52.130;5.430;2024-02-16T09:01:48;101097.66;;;13.07;100.00
71774;BME280;59607;52.130;5.430;2024-02-16T09:04:15;101103.06;;;13.14;100.00
71774;BME280;59607;52.130;5.430;2024-02-16T09:06:42;101105.78;;;13.20;100.00
71774;BME280;59607;52.130;5.430;2024-02-16T09:09:10;101112.56;;;13.23;100.00
71774;BME280;59607;52.130;5.430;2024-02-16T09:11:45;101114.19;;;13.24;100.00
71774;BME280;59607;52.130;5.430;2024-02-16T09:14:11;101117.81;;;13.23;100.00
71774;BME280;59607;52.130;5.430;2024-02-16T09:16:44;101125.41;;;13.18;100.00
71774;BME280;59607;52.130;5.430;2024-02-16T09:19:10;101133.19;;;13.11;100.00
71774;BME280;59607;52.130;5.430;2024-02-16T09:21:45;101134.69;;;13.05;100.00
71774;BME280;59607;52.130;5.430;2024-02-16T09:24:12;101144.59;;;12.95;100.00
71774;BME280;59607;52.130;5.430;2024-02-16T09:26:49;101145.81;;;12.84;100.00
71774;BME280;59607;52.130;5.430;2024-02-16T09:29:15;101156.34;;;12.76;100.00
71774;BME280;59607;52.130;5.430;2024-02-16T09:31:42;101158.19;;;12.67;100.00
71774;BME280;59607;52.130;5.430;2024-02-16T09:34:12;101167.91;;;12.66;100.00
71774;BME280;59607;52.130;5.430;2024-02-16T09:36:39;101165.44;;;12.65;100.00
71774;BME280;59607;52.130;5.430;2024-02-16T09:39:09;101168.41;;;12.62;100.00
71774;BME280;59607;52.130;5.430;2024-02-16T09:41:36;101173.50;;;12.63;100.00
71774;BME280;59607;52.130;5.430;2024-02-16T09:44:03;101176.78;;;12.65;100.00
71774;BME280;59607;52.130;5.430;2024-02-16T09:46:33;101190.25;;;12.70;100.00
71774;BME280;59607;52.130;5.430;2024-02-16T09:49:03;101195.00;;;12.75;100.00
71774;BME280;59607;52.130;5.430;2024-02-16T09:51:36;101196.97;;;12.81;100.00
71774;BME280;59607;52.130;5.430;2024-02-16T09:54:03;101201.56;;;12.88;100.00
71774;BME280;59607;52.130;5.430;2024-02-16T09:56:30;101206.50;;;12.91;100.00
71774;BME280;59607;52.130;5.430;2024-02-16T09:59:02;101199.56;;;12.90;100.00
71774;BME280;59607;52.130;5.430;2024-02-16T10:01:36;101212.09;;;12.88;100.00
71774;BME280;59607;52.130;5.430;2024-02-16T10:04:24;101214.06;;;12.86;100.00
71774;BME280;59607;52.130;5.430;2024-02-16T10:06:51;101211.63;;;12.76;100.00
71774;BME280;59607;52.130;5.430;2024-02-16T10:09:26;101216.56;;;12.70;100.00
71774;BME280;59607;52.130;5.430;2024-02-16T10:11:58;101228.25;;;12.68;100.00
71774;BME280;59607;52.130;5.430;2024-02-16T10:14:24;101230.56;;;12.63;100.00
71774;BME280;59607;52.130;5.430;2024-02-16T10:17:04;101239.13;;;12.56;100.00
71774;BME280;59607;52.130;5.430;2024-02-16T10:19:40;101245.22;;;12.57;100.00
71774;BME280;59607;52.130;5.430;2024-02-16T10:22:12;101246.84;;;12.50;100.00
71774;BME280;59607;52.130;5.430;2024-02-16T10:24:41;101240.59;;;12.51;100.00
71774;BME280;59607;52.130;5.430;2024-02-16T10:27:16;101248.81;;;12.48;100.00
71774;BME280;59607;52.130;5.430;2024-02-16T10:29:50;101256.06;;;12.45;100.00
71774;BME280;59607;52.130;5.430;2024-02-16T10:33:00;101260.19;;;12.40;100.00
71774;BME280;59607;52.130;5.430;2024-02-16T10:35:53;101270.19;;;12.36;100.00
71774;BME280;59607;52.130;5.430;2024-02-16T10:38:29;101271.19;;;12.35;100.00
71774;BME280;59607;52.130;5.430;2024-02-16T10:40:57;101282.03;;;12.32;100.00
71774;BME280;59607;52.130;5.430;2024-02-16T10:43:28;101283.03;;;12.31;100.00
71774;BME280;59607;52.130;5.430;2024-02-16T10:45:58;101297.31;;;12.28;100.00
71774;BME280;59607;52.130;5.430;2024-02-16T10:48:25;101303.91;;;12.24;100.00
71774;BME280;59607;52.130;5.430;2024-02-16T10:51:13;101319.34;;;12.19;100.00
71774;BME280;59607;52.130;5.430;2024-02-16T10:53:44;101317.03;;;12.16;100.00
71774;BME280;59607;52.130;5.430;2024-02-16T10:56:13;101314.72;;;12.13;100.00
71774;BME280;59607;52.130;5.430;2024-02-16T10:58:42;101321.63;;;12.14;100.00
71774;BME280;59607;52.130;5.430;2024-02-16T11:01:17;101334.25;;;12.10;100.00
71774;BME280;59607;52.130;5.430;2024-02-16T11:03:44;101337.34;;;12.05;100.00
71774;BME280;59607;52.130;5.430;2024-02-16T11:06:32;101340.13;;;12.04;100.00
71774;BME280;59607;52.130;5.430;2024-02-16T11:09:03;101336.53;;;12.05;100.00
71774;BME280;59607;52.130;5.430;2024-02-16T11:11:39;101340.50;;;12.09;100.00
71774;BME280;59607;52.130;5.430;2024-02-16T11:14:15;101332.91;;;12.06;100.00
71774;BME280;59607;52.130;5.430;2024-02-16T11:16:48;101339.16;;;12.05;100.00
71774;BME280;59607;52.130;5.430;2024-02-16T11:19:18;101345.06;;;12.07;100.00
71774;BME280;59607;52.130;5.430;2024-02-16T11:21:58;101348.06;;;12.12;100.00
71774;BME280;59607;52.130;5.430;2024-02-16T11:24:31;101349.59;;;12.15;100.00
71774;BME280;59607;52.130;5.430;2024-02-16T11:27:02;101346.47;;;12.19;100.00
71774;BME280;59607;52.130;5.430;2024-02-16T11:29:35;101355.31;;;12.18;100.00
71774;BME280;59607;52.130;5.430;2024-02-16T11:32:05;101352.06;;;12.16;100.00
71774;BME280;59607;52.130;5.430;2024-02-16T11:34:33;101371.59;;;12.14;100.00
71774;BME280;59607;52.130;5.430;2024-02-16T11:37:04;101367.47;;;12.11;100.00
71774;BME280;59607;52.130;5.430;2024-02-16T11:39:31;101374.69;;;12.09;100.00
71774;BME280;59607;52.130;5.430;2024-02-16T11:42:19;101370.28;;;12.09;100.00
71774;BME280;59607;52.130;5.430;2024-02-16T11:44:54;101374.53;;;12.11;100.00
71774;BME280;59607;52.130;5.430;2024-02-16T11:47:29;101370.28;;;12.09;100.00
71774;BME280;59607;52.130;5.430;2024-02-16T11:50:07;101379.47;;;12.14;100.00
71774;BME280;59607;52.130;5.430;2024-02-16T11:52:39;101383.94;;;12.13;100.00
71774;BME280;59607;52.130;5.430;2024-02-16T11:55:14;101373.88;;;12.17;100.00
71774;BME280;59607;52.130;5.430;2024-02-16T11:57:41;101390.00;;;12.14;100.00
71774;BME280;59607;52.130;5.430;2024-02-16T12:00:12;101413.00;;;12.12;100.00
71774;BME280;59607;52.130;5.430;2024-02-16T12:02:43;101408.31;;;12.05;100.00
71774;BME280;59607;52.130;5.430;2024-02-16T12:05:14;101414.75;;;12.03;100.00
71774;BME280;59607;52.130;5.430;2024-02-16T12:07:45;101415.91;;;12.00;100.00
71774;BME280;59607;52.130;5.430;2024-02-16T12:10:17;101432.47;;;12.01;100.00
71774;BME280;59607;52.130;5.430;2024-02-16T12:12:43;101433.31;;;12.01;100.00
71774;BME280;59607;52.130;5.430;2024-02-16T12:15:10;101441.34;;;12.00;100.00
71774;BME280;59607;52.130;5.430;2024-02-16T12:17:38;101432.00;;;12.05;100.00
71774;BME280;59607;52.130;5.430;2024-02-16T12:20:14;101429.91;;;12.09;100.00
71774;BME280;59607;52.130;5.430;2024-02-16T12:22:42;101441.78;;;12.13;100.00
71774;BME280;59607;52.130;5.430;2024-02-16T12:25:11;101450.31;;;12.15;100.00
71774;BME280;59607;52.130;5.430;2024-02-16T12:27:38;101451.63;;;12.11;100.00
71774;BME280;59607;52.130;5.430;2024-02-16T12:30:09;101463.69;;;12.04;100.00
71774;BME280;59607;52.130;5.430;2024-02-16T12:32:43;101459.59;;;12.01;100.00
71774;BME280;59607;52.130;5.430;2024-02-16T12:35:24;101467.94;;;11.96;100.00
71774;BME280;59607;52.130;5.430;2024-02-16T12:37:53;101468.91;;;11.95;100.00
71774;BME280;59607;52.130;5.430;2024-02-16T12:40:19;101474.00;;;11.97;100.00
71774;BME280;59607;52.130;5.430;2024-02-16T12:42:46;101480.25;;;11.96;100.00
71774;BME280;59607;52.130;5.430;2024-02-16T12:45:17;101488.00;;;11.97;100.00
71774;BME280;59607;52.130;5.430;2024-02-16T12:47:44;101495.78;;;12.07;100.00
71774;BME280;59607;52.130;5.430;2024-02-16T12:50:11;101486.41;;;12.05;100.00
71774;BME280;59607;52.130;5.430;2024-02-16T12:52:41;101494.81;;;12.08;100.00
71774;BME280;59607;52.130;5.430;2024-02-16T12:55:20;101492.06;;;12.18;100.00
71774;BME280;59607;52.130;5.430;2024-02-16T12:57:54;101508.63;;;12.11;100.00